Time;durP1;ratioP1;P1;durP2;ratioP2;P2;SDS_P1;SDS_P2;PMS_P1;PMS_P2;Temp;Humidity;BMP_temperature;BMP_pressure;BME280_temperature;BME280_humidity;BME280_pressure;Samples;Min_cycle;Max_cycle;Signal;HPM_P1;HPM_P2
2023/11/27 00:01:51;;;;;;;0.60;0.60;;;2.40;99.90;;;;;;5034445;28;20482;-78
2023/11/27 00:04:18;;;;;;;0.50;0.50;;;2.40;99.90;;;;;;5034485;28;20489;-78
2023/11/27 00:06:46;;;;;;;0.40;0.40;;;2.40;99.90;;;;;;5034650;28;20450;-78
2023/11/27 00:09:13;;;;;;;0.73;0.73;;;2.40;99.90;;;;;;5035180;28;20447;-78
2023/11/27 00:11:40;;;;;;;0.60;0.60;;;2.30;99.90;;;;;;5034136;28;20443;-78
2023/11/27 00:14:07;;;;;;;0.40;0.40;;;2.30;99.90;;;;;;5034784;28;20469;-78
2023/11/27 00:16:33;;;;;;;0.80;0.50;;;2.30;99.90;;;;;;5034732;28;20442;-78
2023/11/27 00:18:59;;;;;;;1.63;0.83;;;2.30;99.90;;;;;;5035403;28;20446;-79
2023/11/27 00:21:26;;;;;;;0.50;0.50;;;2.30;99.90;;;;;;5034657;28;20482;-78
2023/11/27 00:23:54;;;;;;;1.27;0.70;;;2.30;99.90;;;;;;5034024;28;20211;-78
2023/11/27 00:26:21;;;;;;;1.13;0.40;;;2.30;99.90;;;;;;5034752;28;20439;-77
2023/11/27 00:28:48;;;;;;;1.83;1.73;;;2.30;99.90;;;;;;5036770;28;20454;-77
2023/11/27 00:31:14;;;;;;;0.70;0.70;;;2.20;99.90;;;;;;5034773;28;20438;-79
2023/11/27 00:33:41;;;;;;;0.47;0.47;;;2.20;99.90;;;;;;5034484;28;20451;-78
2023/11/27 00:36:09;;;;;;;2.00;0.73;;;2.20;99.90;;;;;;5034038;28;20482;-78
2023/11/27 00:38:37;;;;;;;0.70;0.30;;;2.20;99.90;;;;;;5033898;28;20431;-78
2023/11/27 00:41:06;;;;;;;2.77;0.57;;;2.20;99.90;;;;;;5033507;28;20544;-78
2023/11/27 00:43:33;;;;;;;1.10;1.00;;;2.20;99.90;;;;;;5034943;28;20450;-79
2023/11/27 00:46:00;;;;;;;0.83;0.83;;;2.20;99.90;;;;;;5035736;28;20463;-79
2023/11/27 00:48:27;;;;;;;3.27;0.90;;;2.10;99.90;;;;;;5035598;28;20461;-79
2023/11/27 00:50:54;;;;;;;0.40;0.40;;;2.10;99.90;;;;;;5035814;28;20446;-79
2023/11/27 00:53:20;;;;;;;0.63;0.63;;;2.10;99.90;;;;;;5036033;28;20445;-79
2023/11/27 00:55:47;;;;;;;0.50;0.40;;;2.10;99.90;;;;;;5034462;28;20489;-78
2023/11/27 00:58:15;;;;;;;0.40;0.40;;;2.10;99.90;;;;;;5033694;28;20443;-78
2023/11/27 01:00:42;;;;;;;0.40;0.40;;;2.00;99.90;;;;;;5033768;28;20471;-79
2023/11/27 01:03:08;;;;;;;0.60;0.60;;;2.10;99.90;;;;;;5033743;28;20813;-78
2023/11/27 01:05:36;;;;;;;0.50;0.50;;;2.10;99.90;;;;;;5033555;28;20466;-78
2023/11/27 01:08:04;;;;;;;0.30;0.30;;;2.10;99.90;;;;;;5033559;28;20458;-79
2023/11/27 01:10:31;;;;;;;0.50;0.40;;;2.10;99.90;;;;;;5033634;28;20450;-78
2023/11/27 01:12:58;;;;;;;0.63;0.63;;;2.10;99.90;;;;;;5033573;28;20465;-78
2023/11/27 01:15:26;;;;;;;0.60;0.60;;;2.00;99.90;;;;;;5034663;28;20473;-78
2023/11/27 01:17:53;;;;;;;1.03;0.60;;;2.00;99.90;;;;;;5033749;28;20966;-78
2023/11/27 01:20:20;;;;;;;0.87;0.60;;;2.00;99.90;;;;;;5033674;28;20447;-78
2023/11/27 01:22:47;;;;;;;0.60;0.60;;;2.00;99.90;;;;;;5033961;28;20478;-78
2023/11/27 01:25:14;;;;;;;0.40;0.40;;;2.10;99.90;;;;;;5033941;28;20470;-78
2023/11/27 01:27:41;;;;;;;1.00;0.47;;;2.10;99.90;;;;;;5033893;28;20447;-78
2023/11/27 01:30:09;;;;;;;1.50;1.20;;;2.10;99.90;;;;;;5033726;28;20970;-78
2023/11/27 01:32:37;;;;;;;0.73;0.73;;;2.00;99.90;;;;;;5033884;28;20814;-79
2023/11/27 01:35:04;;;;;;;0.50;0.50;;;2.10;99.90;;;;;;5033328;28;20959;-79
2023/11/27 01:37:31;;;;;;;1.90;0.93;;;2.10;99.90;;;;;;5035534;28;20446;-80
2023/11/27 01:39:58;;;;;;;0.40;0.30;;;2.10;99.90;;;;;;5035850;28;20450;-79
2023/11/27 01:42:24;;;;;;;1.47;0.70;;;2.20;99.90;;;;;;5035606;28;20478;-79
2023/11/27 01:44:51;;;;;;;0.77;0.77;;;2.20;99.90;;;;;;5035617;28;20470;-79
2023/11/27 01:47:18;;;;;;;0.80;0.80;;;2.20;99.90;;;;;;5035023;28;20939;-80
2023/11/27 01:49:47;;;;;;;1.03;0.50;;;2.30;99.90;;;;;;5035164;28;20450;-79
2023/11/27 01:52:15;;;;;;;0.80;0.40;;;2.40;99.90;;;;;;5035534;28;20443;-79
2023/11/27 01:54:43;;;;;;;0.50;0.50;;;2.30;99.90;;;;;;5038022;28;20517;-80
2023/11/27 01:57:15;;;;;;;0.50;0.50;;;2.30;99.90;;;;;;5039144;28;20450;-80
2023/11/27 01:59:42;;;;;;;0.47;0.47;;;2.30;99.90;;;;;;5038627;28;20438;-78
2023/11/27 02:02:11;;;;;;;1.20;0.77;;;2.30;99.90;;;;;;5036432;28;21023;-78
2023/11/27 02:04:37;;;;;;;0.40;0.40;;;2.30;99.90;;;;;;5036650;28;21025;-79
2023/11/27 02:07:06;;;;;;;0.97;0.93;;;2.30;99.90;;;;;;5036798;28;20447;-78
2023/11/27 02:09:33;;;;;;;0.67;0.67;;;2.40;99.90;;;;;;5036876;28;20497;-78
2023/11/27 02:12:00;;;;;;;0.73;0.50;;;2.30;99.90;;;;;;5036721;28;20443;-78
2023/11/27 02:14:26;;;;;;;0.50;0.50;;;2.40;99.90;;;;;;5036587;28;20979;-78
2023/11/27 02:16:53;;;;;;;22.83;0.80;;;2.40;99.90;;;;;;5036574;28;20450;-78
2023/11/27 02:19:20;;;;;;;1.37;0.60;;;2.30;99.90;;;;;;5037087;28;20801;-78
2023/11/27 02:21:46;;;;;;;0.60;0.60;;;2.30;99.90;;;;;;5036291;28;20486;-78
2023/11/27 02:24:14;;;;;;;0.40;0.40;;;2.30;99.90;;;;;;5036963;28;20454;-79
2023/11/27 02:26:41;;;;;;;0.60;0.60;;;2.30;99.90;;;;;;5037527;28;20447;-79
2023/11/27 02:29:08;;;;;;;0.60;0.60;;;2.30;99.90;;;;;;5036371;28;20518;-79
2023/11/27 02:31:35;;;;;;;0.30;0.20;;;2.30;99.90;;;;;;5037206;28;20478;-79
2023/11/27 02:34:01;;;;;;;1.03;0.57;;;2.30;99.90;;;;;;5036336;28;20439;-78
2023/11/27 02:36:36;;;;;;;0.40;0.40;;;2.30;99.90;;;;;;5035479;28;20919;-78
2023/11/27 02:39:06;;;;;;;0.60;0.60;;;2.30;99.90;;;;;;5037381;28;20430;-78
2023/11/27 02:41:35;;;;;;;0.97;0.97;;;2.30;99.90;;;;;;5040365;28;20478;-78
2023/11/27 02:44:02;;;;;;;0.80;0.80;;;2.30;99.90;;;;;;5035531;28;20454;-79
2023/11/27 02:46:29;;;;;;;0.40;0.37;;;2.30;99.90;;;;;;5036512;28;20864;-79
2023/11/27 02:48:55;;;;;;;0.50;0.50;;;2.30;99.90;;;;;;5035830;28;20450;-78
2023/11/27 02:51:22;;;;;;;0.60;0.50;;;2.30;99.90;;;;;;5035666;28;20443;-78
2023/11/27 02:53:49;;;;;;;3.03;1.60;;;2.40;99.90;;;;;;5035462;28;20443;-78
2023/11/27 02:56:15;;;;;;;0.50;0.50;;;2.40;99.90;;;;;;5036677;28;20447;-79
2023/11/27 02:58:43;;;;;;;0.40;0.40;;;2.40;99.90;;;;;;5036798;28;20453;-79
2023/11/27 03:01:10;;;;;;;0.40;0.40;;;2.40;99.90;;;;;;5035838;28;20438;-79
2023/11/27 03:03:39;;;;;;;0.63;0.63;;;2.40;99.90;;;;;;5036542;28;20472;-79
2023/11/27 03:06:07;;;;;;;1.00;0.80;;;2.50;99.90;;;;;;5035507;28;20467;-79
2023/11/27 03:08:33;;;;;;;0.50;0.50;;;2.50;99.90;;;;;;5036635;28;20450;-79
2023/11/27 03:11:00;;;;;;;0.30;0.30;;;2.50;99.90;;;;;;5036735;28;20447;-79
2023/11/27 03:13:27;;;;;;;0.40;0.40;;;2.50;99.90;;;;;;5036941;28;20442;-79
2023/11/27 03:15:55;;;;;;;0.30;0.30;;;2.50;99.90;;;;;;5036527;28;20474;-79
2023/11/27 03:18:21;;;;;;;0.40;0.30;;;2.50;99.90;;;;;;5035082;28;20434;-78
2023/11/27 03:20:48;;;;;;;0.30;0.30;;;2.50;99.90;;;;;;5034792;28;20497;-78
2023/11/27 03:23:15;;;;;;;0.97;0.50;;;2.60;99.90;;;;;;5035762;28;20490;-79
2023/11/27 03:25:41;;;;;;;0.97;0.60;;;2.60;99.90;;;;;;5034992;28;20466;-79
2023/11/27 03:28:08;;;;;;;0.40;0.37;;;2.60;99.90;;;;;;5034188;28;20438;-79
2023/11/27 03:30:35;;;;;;;0.30;0.30;;;2.60;99.90;;;;;;5034933;28;20457;-78
2023/11/27 03:33:03;;;;;;;0.67;0.50;;;2.70;99.90;;;;;;5034613;28;20439;-78
2023/11/27 03:35:31;;;;;;;0.40;0.30;;;2.60;99.90;;;;;;5034284;28;20890;-79
2023/11/27 03:37:58;;;;;;;0.30;0.30;;;2.60;99.90;;;;;;5036503;28;20447;-79
2023/11/27 03:40:24;;;;;;;0.50;0.50;;;2.60;99.90;;;;;;5034564;28;20446;-78
2023/11/27 03:42:51;;;;;;;0.43;0.43;;;2.60;99.90;;;;;;5035051;28;20486;-78
2023/11/27 03:45:18;;;;;;;1.27;1.17;;;2.60;99.90;;;;;;5034478;28;20466;-78
2023/11/27 03:47:44;;;;;;;0.70;0.60;;;2.70;99.90;;;;;;5034409;28;20855;-78
2023/11/27 03:50:13;;;;;;;0.30;0.30;;;2.70;99.90;;;;;;5034121;28;20442;-78
2023/11/27 03:52:40;;;;;;;0.50;0.40;;;2.60;99.90;;;;;;5035483;28;20496;-80
2023/11/27 03:55:07;;;;;;;0.53;0.30;;;2.60;99.90;;;;;;5036301;28;20478;-79
2023/11/27 03:57:34;;;;;;;0.40;0.40;;;2.60;99.90;;;;;;5035058;28;20817;-79
2023/11/27 04:00:00;;;;;;;0.30;0.23;;;2.60;99.90;;;;;;5034735;28;20457;-79
2023/11/27 04:02:27;;;;;;;0.40;0.30;;;2.50;99.90;;;;;;5034191;28;20481;-78
2023/11/27 04:04:54;;;;;;;0.40;0.30;;;2.50;99.90;;;;;;5034357;28;20979;-79
2023/11/27 04:07:22;;;;;;;3.17;0.90;;;2.50;99.90;;;;;;5034009;28;20446;-78
2023/11/27 04:09:48;;;;;;;0.30;0.30;;;2.50;99.90;;;;;;5035157;28;20450;-80
2023/11/27 04:12:15;;;;;;;0.70;0.40;;;2.40;99.90;;;;;;5035587;28;20435;-79
2023/11/27 04:14:42;;;;;;;0.83;0.40;;;2.40;99.90;;;;;;5035440;28;20466;-79
2023/11/27 04:17:08;;;;;;;0.60;0.60;;;2.30;99.90;;;;;;5034607;28;20458;-79
2023/11/27 04:19:35;;;;;;;0.60;0.60;;;2.30;99.90;;;;;;5035542;28;20442;-79
2023/11/27 04:22:02;;;;;;;0.60;0.60;;;2.20;99.90;;;;;;5033714;28;20481;-78
2023/11/27 04:24:30;;;;;;;0.60;0.60;;;2.20;99.90;;;;;;5033409;28;20529;-78
2023/11/27 04:26:57;;;;;;;0.47;0.47;;;2.10;99.90;;;;;;5033727;28;20457;-78
2023/11/27 04:29:24;;;;;;;0.40;0.40;;;2.10;99.90;;;;;;5034294;28;20454;-79
2023/11/27 04:31:51;;;;;;;0.40;0.30;;;2.10;99.90;;;;;;5033706;28;20451;-78
2023/11/27 04:34:17;;;;;;;0.50;0.50;;;2.20;99.90;;;;;;5034016;28;20503;-78
2023/11/27 04:36:45;;;;;;;0.50;0.50;;;2.10;99.90;;;;;;5033777;28;20427;-78
2023/11/27 04:39:14;;;;;;;0.30;0.30;;;2.10;99.90;;;;;;5033999;28;20446;-78
2023/11/27 04:41:42;;;;;;;0.30;0.30;;;2.20;99.90;;;;;;5034504;28;20553;-79
2023/11/27 04:44:09;;;;;;;0.30;0.30;;;2.10;99.90;;;;;;5034007;28;20994;-78
2023/11/27 04:46:36;;;;;;;1.03;0.53;;;2.10;99.90;;;;;;5033541;28;20784;-78
2023/11/27 04:49:02;;;;;;;0.40;0.40;;;2.10;99.90;;;;;;5033676;28;20446;-78
2023/11/27 04:51:30;;;;;;;0.40;0.30;;;2.10;99.90;;;;;;5036762;28;20451;-76
2023/11/27 04:53:57;;;;;;;0.30;0.30;;;2.10;99.90;;;;;;5035541;28;20431;-77
2023/11/27 04:56:24;;;;;;;0.30;0.30;;;2.10;99.90;;;;;;5033732;28;20545;-78
2023/11/27 04:58:52;;;;;;;0.40;0.40;;;2.10;99.90;;;;;;5033515;28;20867;-78
2023/11/27 05:01:19;;;;;;;1.17;0.80;;;2.00;99.90;;;;;;5033478;28;20458;-77
2023/11/27 05:03:45;;;;;;;0.50;0.40;;;2.00;99.90;;;;;;5033073;28;20994;-78
2023/11/27 05:06:15;;;;;;;0.60;0.60;;;2.00;99.90;;;;;;5033673;28;20443;-78
2023/11/27 05:08:42;;;;;;;1.07;0.47;;;1.90;99.90;;;;;;5033452;28;20458;-78
2023/11/27 05:11:08;;;;;;;0.30;0.30;;;1.90;99.90;;;;;;5033309;28;20453;-78
2023/11/27 05:13:35;;;;;;;0.40;0.40;;;1.90;99.90;;;;;;5033382;28;20437;-78
2023/11/27 05:16:03;;;;;;;0.40;0.40;;;1.90;99.90;;;;;;5033565;28;20463;-78
2023/11/27 05:18:30;;;;;;;0.40;0.30;;;2.00;99.90;;;;;;5033934;28;20438;-79
2023/11/27 05:20:57;;;;;;;0.70;0.40;;;2.00;99.90;;;;;;5034500;28;20488;-78
2023/11/27 05:23:23;;;;;;;0.30;0.30;;;2.00;99.90;;;;;;5034165;28;20823;-78
2023/11/27 05:25:50;;;;;;;0.40;0.30;;;2.00;99.90;;;;;;5033106;28;20466;-78
2023/11/27 05:28:17;;;;;;;0.47;0.27;;;2.00;99.90;;;;;;5035001;28;20449;-78
2023/11/27 05:30:44;;;;;;;0.40;0.40;;;2.00;99.90;;;;;;5036940;28;20814;-78
2023/11/27 05:33:12;;;;;;;0.30;0.30;;;2.00;99.90;;;;;;5036900;28;20450;-78
2023/11/27 05:35:38;;;;;;;0.40;0.40;;;2.00;99.90;;;;;;5036500;28;20987;-78
2023/11/27 05:38:05;;;;;;;0.37;0.30;;;2.00;99.90;;;;;;5036927;28;20465;-78
2023/11/27 05:40:32;;;;;;;0.40;0.30;;;2.10;99.90;;;;;;5036791;28;20446;-78
2023/11/27 05:43:04;;;;;;;0.40;0.30;;;2.10;99.90;;;;;;5036761;28;20489;-78
2023/11/27 05:45:32;;;;;;;0.40;0.30;;;2.10;99.90;;;;;;5036702;28;20561;-78
2023/11/27 05:47:58;;;;;;;4.77;2.40;;;2.20;99.90;;;;;;5036743;28;20822;-78
2023/11/27 05:50:27;;;;;;;0.40;0.30;;;2.20;99.90;;;;;;5036595;28;20449;-78
2023/11/27 05:52:54;;;;;;;1.80;0.40;;;2.10;99.90;;;;;;5036748;28;20529;-78
2023/11/27 05:55:20;;;;;;;1.60;0.50;;;2.20;99.90;;;;;;5036428;28;20473;-77
2023/11/27 05:57:47;;;;;;;0.30;0.20;;;2.20;99.90;;;;;;5036492;28;20637;-78
2023/11/27 06:00:15;;;;;;;0.43;0.43;;;2.30;99.90;;;;;;5036510;28;20446;-78
2023/11/27 06:02:42;;;;;;;0.47;0.47;;;2.30;99.90;;;;;;5036349;28;20482;-78
2023/11/27 06:05:09;;;;;;;0.30;0.30;;;2.30;99.90;;;;;;5036367;28;20474;-78
2023/11/27 06:07:37;;;;;;;0.33;0.33;;;2.30;99.90;;;;;;5035945;28;20441;-78
2023/11/27 06:10:06;;;;;;;0.97;0.63;;;2.30;99.90;;;;;;5036398;28;20818;-78
2023/11/27 06:12:34;;;;;;;0.63;0.50;;;2.30;99.90;;;;;;5035950;28;20474;-78
2023/11/27 06:15:01;;;;;;;0.30;0.30;;;2.30;99.90;;;;;;5037707;28;20466;-79
2023/11/27 06:17:28;;;;;;;0.30;0.30;;;2.30;99.90;;;;;;5037471;28;20446;-79
2023/11/27 06:19:55;;;;;;;0.50;0.50;;;2.30;99.90;;;;;;5036896;28;20474;-78
2023/11/27 06:22:21;;;;;;;0.40;0.40;;;2.30;99.90;;;;;;5036110;28;20474;-78
2023/11/27 06:24:51;;;;;;;0.40;0.30;;;2.30;99.90;;;;;;5035874;28;20463;-78
2023/11/27 06:27:18;;;;;;;0.40;0.40;;;2.30;99.90;;;;;;5036243;28;20450;-78
2023/11/27 06:29:44;;;;;;;0.67;0.50;;;2.30;99.90;;;;;;5035454;28;20450;-78
2023/11/27 06:32:11;;;;;;;0.30;0.30;;;2.30;99.90;;;;;;5035949;28;20442;-78
2023/11/27 06:34:38;;;;;;;0.50;0.40;;;2.40;99.90;;;;;;5035628;28;20482;-78
2023/11/27 06:37:04;;;;;;;1.10;0.50;;;2.40;99.90;;;;;;5035815;28;20443;-78
2023/11/27 06:39:31;;;;;;;0.40;0.40;;;2.40;99.90;;;;;;5034790;28;20453;-78
2023/11/27 06:41:59;;;;;;;0.90;0.57;;;2.30;99.90;;;;;;5035311;28;20512;-78
2023/11/27 06:44:26;;;;;;;0.40;0.40;;;2.30;99.90;;;;;;5035499;28;20572;-79
2023/11/27 06:46:52;;;;;;;2.40;0.50;;;2.40;99.90;;;;;;5036235;28;20450;-78
2023/11/27 06:49:19;;;;;;;0.80;0.40;;;2.30;99.90;;;;;;5036393;28;20443;-79
2023/11/27 06:51:46;;;;;;;0.30;0.30;;;2.30;99.90;;;;;;5036356;28;20453;-79
2023/11/27 06:54:13;;;;;;;0.50;0.40;;;2.40;99.90;;;;;;5035686;28;20874;-78
2023/11/27 06:56:40;;;;;;;0.70;0.60;;;2.50;99.90;;;;;;5035121;28;20989;-78
2023/11/27 06:59:09;;;;;;;0.40;0.40;;;2.50;99.90;;;;;;5035320;28;20447;-78
2023/11/27 07:01:39;;;;;;;0.67;0.67;;;2.40;99.90;;;;;;5036617;28;20451;-78
2023/11/27 07:04:06;;;;;;;1.17;0.50;;;2.50;99.90;;;;;;5035762;28;20470;-78
2023/11/27 07:06:35;;;;;;;0.40;0.40;;;2.50;99.90;;;;;;5035297;28;20462;-78
2023/11/27 07:09:04;;;;;;;0.93;0.67;;;2.50;99.90;;;;;;5040505;28;20497;-78
2023/11/27 07:11:31;;;;;;;0.60;0.60;;;2.50;99.90;;;;;;5035657;28;20502;-79
2023/11/27 07:13:58;;;;;;;1.40;0.90;;;2.60;99.90;;;;;;5035131;28;20443;-79
2023/11/27 07:16:26;;;;;;;0.30;0.30;;;2.50;99.90;;;;;;5035826;28;20450;-79
2023/11/27 07:18:54;;;;;;;0.73;0.57;;;2.50;99.90;;;;;;5035675;28;20450;-78
2023/11/27 07:21:21;;;;;;;1.13;0.70;;;2.60;99.90;;;;;;5034591;28;20530;-78
2023/11/27 07:23:49;;;;;;;1.23;0.60;;;2.60;99.90;;;;;;5034760;28;20509;-79
2023/11/27 07:26:16;;;;;;;0.60;0.60;;;2.60;99.90;;;;;;5035995;28;20638;-78
2023/11/27 07:28:43;;;;;;;2.00;0.70;;;2.60;99.90;;;;;;5034784;28;20442;-78
2023/11/27 07:31:10;;;;;;;1.00;0.97;;;2.60;99.90;;;;;;5034727;28;20817;-79
2023/11/27 07:33:38;;;;;;;0.50;0.40;;;2.60;99.90;;;;;;5035669;28;20442;-78
2023/11/27 07:36:07;;;;;;;1.10;0.57;;;2.60;99.90;;;;;;5035963;28;20482;-78
2023/11/27 07:38:33;;;;;;;0.70;0.70;;;2.70;99.90;;;;;;5037224;28;20858;-80
2023/11/27 07:41:00;;;;;;;0.50;0.37;;;2.70;99.90;;;;;;5038141;28;20928;-79
2023/11/27 07:43:27;;;;;;;0.40;0.30;;;2.70;99.90;;;;;;5037707;28;20486;-79
2023/11/27 07:45:54;;;;;;;1.30;0.40;;;2.80;99.90;;;;;;5036971;28;20473;-78
2023/11/27 07:48:22;;;;;;;0.50;0.37;;;2.80;99.90;;;;;;5036017;28;20463;-78
2023/11/27 07:50:50;;;;;;;1.23;0.50;;;2.80;99.90;;;;;;5035977;28;20826;-79
2023/11/27 07:53:19;;;;;;;0.40;0.40;;;2.90;99.90;;;;;;5037003;28;20819;-79
2023/11/27 07:55:46;;;;;;;2.40;0.90;;;2.80;99.90;;;;;;5036455;28;20466;-80
2023/11/27 07:58:14;;;;;;;0.60;0.40;;;2.90;99.90;;;;;;5036389;28;20542;-80
2023/11/27 08:00:41;;;;;;;1.90;0.83;;;2.80;99.90;;;;;;5036697;28;20486;-79
2023/11/27 08:03:08;;;;;;;0.70;0.70;;;2.90;99.90;;;;;;5037584;28;20478;-79
2023/11/27 08:05:35;;;;;;;0.60;0.50;;;3.00;99.90;;;;;;5036594;28;20466;-80
2023/11/27 08:08:04;;;;;;;0.60;0.40;;;2.90;99.90;;;;;;5037320;28;20431;-80
2023/11/27 08:10:31;;;;;;;0.30;0.30;;;2.90;99.90;;;;;;5036279;28;20809;-80
2023/11/27 08:12:57;;;;;;;1.03;0.63;;;3.00;99.90;;;;;;5036977;28;20438;-79
2023/11/27 08:15:24;;;;;;;1.00;0.40;;;3.00;99.90;;;;;;5036588;28;20474;-80
2023/11/27 08:17:54;;;;;;;1.50;0.40;;;3.10;99.90;;;;;;5036667;28;20443;-79
2023/11/27 08:20:27;;;;;;;0.60;0.57;;;3.10;99.90;;;;;;5035804;28;20445;-78
2023/11/27 08:22:54;;;;;;;1.00;0.57;;;3.20;99.90;;;;;;5036632;28;20434;-79
2023/11/27 08:25:22;;;;;;;0.43;0.43;;;3.30;99.90;;;;;;5035901;28;20474;-79
2023/11/27 08:27:49;;;;;;;1.20;0.80;;;3.30;99.90;;;;;;5036241;28;20445;-80
2023/11/27 08:30:17;;;;;;;0.40;0.30;;;3.30;99.90;;;;;;5037549;28;20442;-79
2023/11/27 08:32:44;;;;;;;0.53;0.53;;;3.30;99.90;;;;;;5036039;28;20451;-79
2023/11/27 08:35:11;;;;;;;0.40;0.40;;;3.40;99.90;;;;;;5035774;28;20554;-80
2023/11/27 08:37:39;;;;;;;0.50;0.50;;;3.40;99.90;;;;;;5036533;28;20447;-80
2023/11/27 08:40:09;;;;;;;0.40;0.40;;;3.50;99.90;;;;;;5036931;28;20514;-79
2023/11/27 08:42:37;;;;;;;0.70;0.70;;;3.50;99.90;;;;;;5035647;28;20450;-79
2023/11/27 08:45:10;;;;;;;0.30;0.30;;;3.50;99.90;;;;;;5036116;28;20483;-79
2023/11/27 08:47:38;;;;;;;1.40;0.43;;;3.50;99.90;;;;;;5035989;28;20490;-80
2023/11/27 08:50:07;;;;;;;0.50;0.50;;;3.50;99.90;;;;;;5036152;28;20492;-79
2023/11/27 08:52:35;;;;;;;0.40;0.40;;;3.60;99.90;;;;;;5036505;28;20446;-80
2023/11/27 08:55:05;;;;;;;1.67;0.53;;;3.60;99.90;;;;;;5036071;28;20485;-80
2023/11/27 08:57:31;;;;;;;6.53;1.10;;;3.70;99.90;;;;;;5036774;28;20545;-79
2023/11/27 09:00:02;;;;;;;1.63;0.50;;;3.80;99.90;;;;;;5036440;28;20457;-80
2023/11/27 09:02:29;;;;;;;0.70;0.70;;;3.80;99.90;;;;;;5036966;28;20457;-79
2023/11/27 09:04:56;;;;;;;0.70;0.50;;;3.80;99.90;;;;;;5041057;28;20497;-80
2023/11/27 09:07:22;;;;;;;0.80;0.80;;;3.80;99.90;;;;;;5040099;28;20958;-80
2023/11/27 09:09:49;;;;;;;1.23;0.40;;;3.80;99.90;;;;;;5041214;28;20454;-81
2023/11/27 09:12:16;;;;;;;0.53;0.50;;;3.80;99.90;;;;;;5040711;28;20455;-80
2023/11/27 09:14:42;;;;;;;0.70;0.70;;;3.90;99.90;;;;;;5039928;28;20473;-80
2023/11/27 09:17:11;;;;;;;0.40;0.40;;;3.90;99.90;;;;;;5040568;28;20486;-80
2023/11/27 09:19:37;;;;;;;1.13;0.77;;;3.90;99.90;;;;;;5043200;28;20450;-78
2023/11/27 09:22:04;;;;;;;0.63;0.63;;;4.00;99.90;;;;;;5047003;28;20446;-79
2023/11/27 09:24:31;;;;;;;0.83;0.50;;;4.10;99.90;;;;;;5039131;28;20494;-79
2023/11/27 09:27:01;;;;;;;1.53;0.57;;;4.10;99.90;;;;;;5038911;28;20457;-80
2023/11/27 09:29:28;;;;;;;1.03;0.70;;;4.10;99.90;;;;;;5039732;28;20862;-80
2023/11/27 09:31:54;;;;;;;0.83;0.83;;;4.10;99.90;;;;;;5039513;28;20454;-79
2023/11/27 09:34:22;;;;;;;0.30;0.30;;;4.00;99.90;;;;;;5038350;28;20485;-80
2023/11/27 09:36:49;;;;;;;0.60;0.50;;;4.10;99.90;;;;;;5038743;28;20437;-80
2023/11/27 09:39:17;;;;;;;0.30;0.30;;;4.10;99.90;;;;;;5038613;28;20924;-79
2023/11/27 09:41:44;;;;;;;10.33;0.77;;;4.10;99.90;;;;;;5038952;28;20485;-80
2023/11/27 09:44:12;;;;;;;0.40;0.40;;;4.00;99.90;;;;;;5038620;28;20482;-80
2023/11/27 09:46:42;;;;;;;1.40;0.90;;;4.00;99.90;;;;;;5038513;28;20497;-79
2023/11/27 09:49:15;;;;;;;0.57;0.40;;;4.10;99.90;;;;;;5038861;28;20455;-80
2023/11/27 09:51:46;;;;;;;2.20;0.90;;;4.10;99.90;;;;;;5038564;28;20522;-81
2023/11/27 09:54:14;;;;;;;0.60;0.50;;;4.00;99.90;;;;;;5038824;28;20466;-81
2023/11/27 09:56:42;;;;;;;1.20;1.17;;;4.00;99.90;;;;;;5038734;28;20446;-80
2023/11/27 09:59:09;;;;;;;0.40;0.30;;;3.90;99.90;;;;;;5038546;28;20453;-80
2023/11/27 10:01:37;;;;;;;3.30;0.50;;;4.00;99.90;;;;;;5040611;28;20450;-80
2023/11/27 10:04:08;;;;;;;0.90;0.80;;;4.00;99.90;;;;;;5039750;28;20482;-79
2023/11/27 10:06:41;;;;;;;1.27;1.17;;;4.00;99.90;;;;;;5039225;28;20509;-80
2023/11/27 10:09:13;;;;;;;1.93;0.50;;;4.00;99.90;;;;;;5039224;28;20839;-80
2023/11/27 10:11:41;;;;;;;0.67;0.67;;;4.10;99.90;;;;;;5038915;28;20442;-80
2023/11/27 10:14:09;;;;;;;0.40;0.30;;;4.00;99.90;;;;;;5037651;28;20998;-80
2023/11/27 10:16:36;;;;;;;0.40;0.40;;;4.00;99.90;;;;;;5038327;28;20443;-80
2023/11/27 10:19:06;;;;;;;2.27;1.10;;;4.10;99.90;;;;;;5039142;28;20442;-80
2023/11/27 10:21:34;;;;;;;1.03;0.60;;;4.10;99.90;;;;;;5038734;28;20505;-80
2023/11/27 10:24:01;;;;;;;1.47;1.03;;;4.20;99.90;;;;;;5038571;28;20486;-80
2023/11/27 10:26:31;;;;;;;1.80;0.70;;;4.20;99.90;;;;;;5038355;28;20446;-80
2023/11/27 10:28:58;;;;;;;0.50;0.50;;;4.30;99.90;;;;;;5038219;28;20470;-81
2023/11/27 10:31:26;;;;;;;2.20;1.73;;;4.00;99.90;;;;;;5038857;28;20469;-80
2023/11/27 10:33:53;;;;;;;0.97;0.63;;;4.30;99.90;;;;;;5040052;28;20489;-80
2023/11/27 10:36:23;;;;;;;1.00;0.60;;;4.50;99.90;;;;;;5037450;28;20427;-80
2023/11/27 10:39:00;;;;;;;1.57;1.03;;;4.50;99.90;;;;;;5038081;28;20525;-79
2023/11/27 10:41:29;;;;;;;5.60;1.07;;;4.50;99.90;;;;;;5037742;28;20411;-80
2023/11/27 10:43:59;;;;;;;2.50;1.70;;;4.60;99.90;;;;;;5037351;28;20840;-80
2023/11/27 10:46:29;;;;;;;1.00;0.60;;;4.60;99.90;;;;;;5037705;28;20447;-81
2023/11/27 10:48:58;;;;;;;0.93;0.93;;;4.60;99.90;;;;;;5037543;28;20453;-79
2023/11/27 10:51:29;;;;;;;5.33;1.53;;;4.70;99.90;;;;;;5037728;28;20451;-80
2023/11/27 10:53:58;;;;;;;2.03;1.30;;;4.80;99.90;;;;;;5037021;28;20946;-79
2023/11/27 10:56:28;;;;;;;2.50;1.23;;;4.90;99.90;;;;;;5037441;28;20446;-79
2023/11/27 10:58:59;;;;;;;2.77;0.70;;;5.00;99.90;;;;;;5037025;28;20450;-80
2023/11/27 11:01:30;;;;;;;0.50;0.50;;;5.00;99.90;;;;;;5037818;28;20416;-80
2023/11/27 11:04:09;;;;;;;0.50;0.40;;;5.10;99.90;;;;;;5038062;28;20471;-81
2023/11/27 11:06:40;;;;;;;1.93;0.80;;;5.00;99.90;;;;;;5037952;28;20825;-81
2023/11/27 11:09:12;;;;;;;1.33;0.40;;;5.20;99.90;;;;;;5038883;28;20427;-80
2023/11/27 11:11:39;;;;;;;0.40;0.40;;;5.20;99.90;;;;;;5037999;28;20924;-80
2023/11/27 11:14:08;;;;;;;0.53;0.53;;;5.20;99.90;;;;;;5037991;28;20450;-81
2023/11/27 11:16:40;;;;;;;2.20;0.40;;;5.20;99.90;;;;;;5038127;28;20439;-80
2023/11/27 11:19:12;;;;;;;0.80;0.50;;;5.10;99.90;;;;;;5037993;28;20432;-80
2023/11/27 11:21:55;;;;;;;1.43;0.50;;;5.20;99.90;;;;;;5038466;28;20843;-80
2023/11/27 11:24:28;;;;;;;0.90;0.80;;;5.20;99.90;;;;;;5038022;28;20502;-82
2023/11/27 11:27:16;;;;;;;0.50;0.50;;;5.00;99.90;;;;;;5037346;28;20769;-79
2023/11/27 11:29:45;;;;;;;0.70;0.50;;;4.90;99.90;;;;;;5038551;28;20439;-80
2023/11/27 11:32:16;;;;;;;0.40;0.40;;;4.80;99.90;;;;;;5050703;28;20963;-79
2023/11/27 11:34:44;;;;;;;0.50;0.47;;;4.80;99.90;;;;;;5036046;28;20482;-81
2023/11/27 11:37:14;;;;;;;1.23;0.47;;;4.90;99.90;;;;;;5040918;28;20943;-81
2023/11/27 11:39:45;;;;;;;0.70;0.40;;;4.90;99.90;;;;;;5036459;28;20478;-80
2023/11/27 11:42:17;;;;;;;0.40;0.37;;;4.90;99.90;;;;;;5036669;28;20430;-80
2023/11/27 11:45:04;;;;;;;0.63;0.50;;;4.90;99.90;;;;;;5036595;28;20490;-80
2023/11/27 11:47:33;;;;;;;0.90;0.50;;;4.90;99.90;;;;;;5037297;28;20826;-82
2023/11/27 11:50:20;;;;;;;0.50;0.50;;;4.80;99.90;;;;;;5038014;28;20458;-82
2023/11/27 11:52:47;;;;;;;0.50;0.50;;;4.80;99.90;;;;;;5037364;28;20439;-81
2023/11/27 11:55:15;;;;;;;0.50;0.50;;;4.70;99.90;;;;;;5037529;28;20505;-80
2023/11/27 11:57:42;;;;;;;0.70;0.37;;;4.80;99.90;;;;;;5036194;28;20477;-79
2023/11/27 12:00:19;;;;;;;1.27;0.53;;;4.80;99.90;;;;;;5036253;28;20443;-80
2023/11/27 12:02:47;;;;;;;0.60;0.60;;;4.90;99.90;;;;;;5036463;28;20427;-80
2023/11/27 12:05:15;;;;;;;0.30;0.30;;;4.90;99.90;;;;;;5036546;28;20498;-80
2023/11/27 12:07:44;;;;;;;0.30;0.30;;;4.90;99.90;;;;;;5037239;28;20443;-80
2023/11/27 12:10:16;;;;;;;0.57;0.40;;;4.80;99.90;;;;;;5036641;28;20451;-81
2023/11/27 12:12:46;;;;;;;0.40;0.30;;;4.80;99.90;;;;;;5036740;28;20427;-80
2023/11/27 12:15:16;;;;;;;0.30;0.20;;;4.70;99.90;;;;;;5037004;28;20459;-80
2023/11/27 12:17:44;;;;;;;0.40;0.37;;;4.70;99.90;;;;;;5036796;28;20454;-80
2023/11/27 12:20:13;;;;;;;1.00;0.50;;;4.70;99.90;;;;;;5036106;28;20438;-79
2023/11/27 12:22:43;;;;;;;0.63;0.40;;;4.70;99.90;;;;;;5036836;28;20446;-80
2023/11/27 12:25:10;;;;;;;0.50;0.30;;;4.70;99.90;;;;;;5036600;28;20490;-79
2023/11/27 12:27:37;;;;;;;0.30;0.30;;;4.70;99.90;;;;;;5037102;28;20462;-79
2023/11/27 12:30:04;;;;;;;1.90;0.50;;;4.80;99.90;;;;;;5036876;28;20442;-80
2023/11/27 12:32:32;;;;;;;0.40;0.40;;;4.80;99.90;;;;;;5036558;28;20552;-80
2023/11/27 12:35:00;;;;;;;0.30;0.20;;;4.80;99.90;;;;;;5036349;28;20474;-80
2023/11/27 12:37:28;;;;;;;0.63;0.63;;;4.70;99.90;;;;;;5036124;28;20462;-80
2023/11/27 12:39:56;;;;;;;0.57;0.37;;;4.70;99.90;;;;;;5036787;28;20454;-80
2023/11/27 12:42:23;;;;;;;0.30;0.30;;;4.60;99.90;;;;;;5036078;28;21050;-80
2023/11/27 12:44:50;;;;;;;0.30;0.30;;;4.60;99.90;;;;;;5035654;28;20570;-80
2023/11/27 12:47:21;;;;;;;0.30;0.20;;;4.50;99.90;;;;;;5036052;28;20966;-81
2023/11/27 12:49:52;;;;;;;0.30;0.30;;;4.60;99.90;;;;;;5037210;28;20443;-79
2023/11/27 12:52:19;;;;;;;0.40;0.30;;;4.60;99.90;;;;;;5036599;28;20449;-79
2023/11/27 12:54:54;;;;;;;0.63;0.40;;;4.60;99.90;;;;;;5035656;28;20463;-80
2023/11/27 12:57:22;;;;;;;0.30;0.27;;;4.50;99.90;;;;;;5036626;28;20423;-79
2023/11/27 12:59:49;;;;;;;0.30;0.30;;;4.40;99.90;;;;;;5036166;28;20446;-80
2023/11/27 13:02:18;;;;;;;0.30;0.20;;;4.40;99.90;;;;;;5036487;28;20508;-80